Terminal Aerodrome Forecast
Issued by NWS Newport/Morehead City, NC

Home | Current Version | Previous Version | Graphics & Text | Print | Product List | Glossary On
Versions: 1 2 3 4 5 6 7 8 9 10 11 12 13 14 15 16 17 18
000
FTUS42 KMHX 251751
TAFEWN
TAF
KEWN 251751Z 2518/2618 18008KT P6SM VCSH BKN040
     FM252200 22006KT P6SM BKN040
     FM260000 VRB04KT P6SM BKN025
     FM260400 VRB04KT P6SM BKN007
     FM260800 VRB04KT P6SM BKN010
     FM261400 28006KT P6SM SCT015=

USA.gov is the U.S. government's official web portal to all federal, state and local government web resources and services.